Time;durP1;ratioP1;P1;durP2;ratioP2;P2;SDS_P1;SDS_P2;PMS_P1;PMS_P2;Temp;Humidity;BMP_temperature;BMP_pressure;BME280_temperature;BME280_humidity;BME280_pressure;Samples;Min_cycle;Max_cycle;Signal;HPM_P1;HPM_P2
2023/03/25 00:00:16;;;;;;;10.38;1.63;;;7.10;99.90;;;;;;4978582;28;20031;-94
2023/03/25 00:02:47;;;;;;;10.00;1.27;;;7.10;99.90;;;;;;4961368;28;20035;-92
2023/03/25 00:05:14;;;;;;;8.77;1.15;;;7.10;99.90;;;;;;4961269;28;20019;-91
2023/03/25 00:07:41;;;;;;;5.15;0.90;;;7.00;99.90;;;;;;4961589;28;20069;-93
2023/03/25 00:10:07;;;;;;;8.82;1.48;;;7.10;99.90;;;;;;4961539;28;20027;-91
2023/03/25 00:12:33;;;;;;;4.93;1.00;;;7.10;99.90;;;;;;4977962;28;20468;-91
2023/03/25 00:14:59;;;;;;;8.73;1.20;;;7.00;99.90;;;;;;4977873;28;20041;-91
2023/03/25 00:17:27;;;;;;;7.03;1.00;;;7.00;99.90;;;;;;4961247;28;20042;-93
2023/03/25 00:19:54;;;;;;;6.32;1.02;;;7.00;99.90;;;;;;4961132;28;20698;-90
2023/03/25 00:22:20;;;;;;;9.15;0.98;;;7.00;99.90;;;;;;4960718;28;20122;-92
2023/03/25 00:24:47;;;;;;;12.98;1.45;;;7.00;99.90;;;;;;4977854;28;20027;-91
2023/03/25 00:27:16;;;;;;;3.30;1.02;;;7.00;99.90;;;;;;4960382;28;20085;-92
2023/03/25 00:29:42;;;;;;;3.40;0.70;;;7.00;99.90;;;;;;4960630;28;20026;-91
2023/03/25 00:32:09;;;;;;;8.73;1.27;;;7.00;99.90;;;;;;4960476;28;20035;-92
2023/03/25 00:34:40;;;;;;;5.78;1.10;;;7.00;99.90;;;;;;4982927;28;20022;-92
2023/03/25 00:37:07;;;;;;;4.72;1.13;;;7.00;99.90;;;;;;4960436;28;20030;-92
2023/03/25 00:39:33;;;;;;;4.22;0.75;;;7.00;99.90;;;;;;4960154;28;20027;-92
2023/03/25 00:42:00;;;;;;;3.42;0.45;;;7.00;99.90;;;;;;4960292;28;20023;-91
2023/03/25 00:44:27;;;;;;;7.82;1.10;;;7.00;99.90;;;;;;4960329;28;20079;-93
2023/03/25 00:46:52;;;;;;;7.53;1.02;;;7.00;99.90;;;;;;4960800;28;20035;-92
2023/03/25 00:49:18;;;;;;;7.00;1.42;;;7.00;99.90;;;;;;4960172;28;20085;-92
2023/03/25 00:51:44;;;;;;;4.25;0.73;;;7.00;99.90;;;;;;4960072;28;20064;-92
2023/03/25 00:54:10;;;;;;;6.63;1.30;;;7.00;99.90;;;;;;4960231;28;20495;-91
2023/03/25 00:56:36;;;;;;;7.20;1.30;;;7.00;99.90;;;;;;4960117;28;20039;-93
2023/03/25 00:59:02;;;;;;;3.67;0.57;;;7.00;99.90;;;;;;4960153;28;20023;-90
2023/03/25 01:01:28;;;;;;;4.97;1.45;;;7.00;99.90;;;;;;4977350;28;20034;-91
2023/03/25 01:03:58;;;;;;;1.20;0.73;;;7.00;99.90;;;;;;4960306;28;20059;-92
2023/03/25 01:06:28;;;;;;;4.43;1.23;;;7.00;99.90;;;;;;4959364;28;20031;-92
2023/03/25 01:08:56;;;;;;;9.38;1.10;;;7.00;99.90;;;;;;4959799;28;20041;-92
2023/03/25 01:11:28;;;;;;;6.40;1.13;;;7.00;99.90;;;;;;4959133;28;20035;-92
2023/03/25 01:13:55;;;;;;;6.03;0.88;;;7.00;99.90;;;;;;4959654;28;20023;-92
2023/03/25 01:16:21;;;;;;;5.15;1.17;;;7.00;99.90;;;;;;4959557;28;20029;-94
2023/03/25 01:18:47;;;;;;;3.42;0.70;;;7.00;99.90;;;;;;4959715;28;20035;-93
2023/03/25 01:21:13;;;;;;;6.38;1.23;;;7.00;99.90;;;;;;4959553;28;20030;-93
2023/03/25 01:23:39;;;;;;;4.55;0.80;;;7.00;99.90;;;;;;4959426;28;20031;-93
2023/03/25 01:26:05;;;;;;;5.75;1.48;;;7.00;99.90;;;;;;4958713;28;20033;-92
2023/03/25 01:28:30;;;;;;;8.52;1.42;;;7.00;99.90;;;;;;4958848;28;20101;-92
2023/03/25 01:31:02;;;;;;;5.47;0.70;;;7.00;99.90;;;;;;4958782;28;20038;-93
2023/03/25 01:33:27;;;;;;;4.10;0.70;;;6.90;99.90;;;;;;4956988;28;20030;-93
2023/03/25 01:35:53;;;;;;;4.30;1.02;;;6.90;99.90;;;;;;4957417;28;20027;-91
2023/03/25 01:38:20;;;;;;;6.32;0.88;;;6.90;99.90;;;;;;4957348;28;20038;-90
2023/03/25 01:40:45;;;;;;;7.40;1.08;;;7.00;99.90;;;;;;4956985;28;20057;-91
2023/03/25 01:43:14;;;;;;;12.50;3.50;;;7.00;99.90;;;;;;4957218;28;20066;-91
2023/03/25 01:45:40;;;;;;;11.73;1.38;;;7.00;99.90;;;;;;4975241;28;20091;-92
2023/03/25 01:48:14;;;;;;;12.43;1.20;;;7.00;99.90;;;;;;4959541;28;20050;-92
2023/03/25 01:50:43;;;;;;;3.70;0.95;;;7.00;99.90;;;;;;4957447;28;20031;-93
2023/03/25 01:53:10;;;;;;;6.22;0.90;;;7.00;99.90;;;;;;4958084;28;20058;-92
2023/03/25 01:55:37;;;;;;;4.75;1.33;;;7.00;99.90;;;;;;4958798;28;20034;-92
2023/03/25 01:58:10;;;;;;;7.05;1.40;;;7.00;99.90;;;;;;4958510;28;20035;-93
2023/03/25 02:00:39;;;;;;;7.93;1.30;;;7.00;99.90;;;;;;4958060;28;20074;-93
2023/03/25 02:03:07;;;;;;;6.13;1.08;;;7.00;99.90;;;;;;4957904;28;20361;-93
2023/03/25 02:05:47;;;;;;;5.90;1.42;;;7.00;99.90;;;;;;4957514;28;20321;-94
2023/03/25 02:08:14;;;;;;;7.85;1.35;;;7.00;99.90;;;;;;4957839;28;20054;-94
2023/03/25 02:10:43;;;;;;;13.43;2.15;;;7.00;99.90;;;;;;4957898;28;20369;-94
2023/03/25 02:13:10;;;;;;;5.00;0.70;;;7.10;99.90;;;;;;4957567;28;20022;-95
2023/03/25 02:15:58;;;;;;;5.45;1.38;;;7.10;99.90;;;;;;4957534;28;20045;-94
2023/03/25 02:18:42;;;;;;;3.25;0.80;;;7.10;99.90;;;;;;4957590;28;20081;-94
2023/03/25 02:21:29;;;;;;;4.05;0.90;;;7.10;99.90;;;;;;4958049;28;20038;-94
2023/03/25 02:24:12;;;;;;;5.75;1.00;;;7.10;99.90;;;;;;4957502;28;20029;-93
2023/03/25 02:26:58;;;;;;;6.18;1.73;;;7.10;99.90;;;;;;4957790;28;20037;-93
2023/03/25 02:30:05;;;;;;;4.68;1.63;;;7.20;99.90;;;;;;4974955;28;20038;-94
2023/03/25 02:33:05;;;;;;;5.72;0.80;;;7.20;99.90;;;;;;4958209;28;20548;-93
2023/03/25 02:35:58;;;;;;;6.63;1.10;;;7.20;99.90;;;;;;4957857;28;20031;-93
2023/03/25 02:38:26;;;;;;;6.70;1.40;;;7.20;99.90;;;;;;4958026;28;20038;-93
2023/03/25 02:41:03;;;;;;;8.30;1.00;;;7.20;99.90;;;;;;4975041;28;20023;-93
2023/03/25 02:43:38;;;;;;;4.45;0.80;;;7.10;99.90;;;;;;4957725;28;20038;-92
2023/03/25 02:46:09;;;;;;;6.38;0.90;;;7.10;99.90;;;;;;4957805;28;20031;-92
2023/03/25 02:48:50;;;;;;;8.82;2.55;;;7.10;99.90;;;;;;4957762;28;20412;-92
2023/03/25 02:51:20;;;;;;;2.85;0.90;;;7.20;99.90;;;;;;4957447;28;20126;-92
2023/03/25 02:53:49;;;;;;;5.38;0.98;;;7.20;99.90;;;;;;4957707;28;20042;-91
2023/03/25 02:56:21;;;;;;;7.25;0.90;;;7.20;99.90;;;;;;4957741;28;20038;-93
2023/03/25 02:58:50;;;;;;;2.75;0.93;;;7.20;99.90;;;;;;4957786;28;20035;-92
2023/03/25 03:01:16;;;;;;;4.35;0.93;;;7.20;99.90;;;;;;4957882;28;20031;-91
2023/03/25 03:03:41;;;;;;;2.63;0.68;;;7.20;99.90;;;;;;4957559;28;20473;-92
2023/03/25 03:06:14;;;;;;;6.35;1.63;;;7.30;99.90;;;;;;4957329;28;20604;-92
2023/03/25 03:08:49;;;;;;;6.35;0.90;;;7.30;99.90;;;;;;4957763;28;20034;-93
2023/03/25 03:11:28;;;;;;;4.53;0.73;;;7.30;99.90;;;;;;4957955;28;20026;-92
2023/03/25 03:14:14;;;;;;;5.63;0.85;;;7.30;99.90;;;;;;4958551;28;20031;-91
2023/03/25 03:17:02;;;;;;;4.43;0.88;;;7.30;99.90;;;;;;4959016;28;20055;-93
2023/03/25 03:20:14;;;;;;;5.55;1.10;;;7.30;99.90;;;;;;4989324;28;20057;-92
2023/03/25 03:23:09;;;;;;;10.20;1.23;;;7.30;99.90;;;;;;4876216;29;20112;-91
2023/03/25 03:25:50;;;;;;;5.63;0.90;;;7.30;99.90;;;;;;4885898;29;20057;-93
2023/03/25 03:28:23;;;;;;;;;;;7.40;99.90;;;;;;4886011;29;20096;-91
2023/03/25 03:30:56;;;;;;;3.92;0.90;;;7.40;99.90;;;;;;4889269;29;19907;-93
2023/03/25 03:33:42;;;;;;;4.65;0.88;;;7.40;99.90;;;;;;4882323;29;20033;-93
2023/03/25 03:36:12;;;;;;;12.57;1.13;;;7.40;99.90;;;;;;4866245;29;20025;-91
2023/03/25 03:38:44;;;;;;;4.93;1.00;;;7.40;99.90;;;;;;4866042;29;20471;-92
2023/03/25 03:41:15;;;;;;;1.98;0.80;;;7.30;99.90;;;;;;4866276;29;20072;-92
2023/03/25 03:44:12;;;;;;;3.05;0.60;;;7.40;99.90;;;;;;4866646;29;20070;-93
2023/03/25 03:46:53;;;;;;;3.30;0.90;;;7.30;99.90;;;;;;4851959;29;20377;-91
2023/03/25 03:49:23;;;;;;;5.78;1.15;;;7.30;99.90;;;;;;4875493;29;20033;-92
2023/03/25 03:52:01;;;;;;;8.38;0.80;;;7.30;99.90;;;;;;4876420;29;20076;-92
2023/03/25 03:54:34;;;;;;;7.53;1.63;;;7.40;99.90;;;;;;4867924;29;20121;-93
2023/03/25 03:57:36;;;;;;;3.58;1.00;;;7.40;99.90;;;;;;4937328;28;20074;-92
2023/03/25 04:00:11;;;;;;;5.65;1.33;;;7.40;99.90;;;;;;4946258;28;20066;-91
2023/03/25 04:02:55;;;;;;;13.80;1.52;;;7.40;99.90;;;;;;4961399;28;20023;-92
2023/03/25 04:05:29;;;;;;;5.47;1.00;;;7.40;99.90;;;;;;4961115;28;20019;-91
2023/03/25 04:08:11;;;;;;;6.75;1.50;;;7.40;99.90;;;;;;4961632;28;20023;-91
2023/03/25 04:11:00;;;;;;;6.05;1.23;;;7.30;99.90;;;;;;4961337;28;20027;-91
2023/03/25 04:13:35;;;;;;;7.30;1.30;;;7.30;99.90;;;;;;4960422;28;20090;-93
2023/03/25 04:16:01;;;;;;;7.10;1.58;;;7.30;99.90;;;;;;4961318;28;20035;-92
2023/03/25 04:18:27;;;;;;;5.63;1.88;;;7.30;99.90;;;;;;4961158;28;20034;-91
2023/03/25 04:20:53;;;;;;;7.53;2.00;;;7.30;99.90;;;;;;4961081;28;20109;-92
2023/03/25 04:23:20;;;;;;;7.25;1.88;;;7.30;99.90;;;;;;4961199;28;20499;-91
2023/03/25 04:25:48;;;;;;;5.10;1.45;;;7.30;99.90;;;;;;4961092;28;20029;-90
2023/03/25 04:28:16;;;;;;;4.13;1.52;;;7.30;99.90;;;;;;4960772;28;20022;-91
2023/03/25 04:30:44;;;;;;;6.10;2.05;;;7.30;99.90;;;;;;4977873;28;20027;-90
2023/03/25 04:33:10;;;;;;;5.13;1.55;;;7.30;99.90;;;;;;4977840;28;20038;-90
2023/03/25 04:35:37;;;;;;;5.18;1.70;;;7.20;99.90;;;;;;4960554;28;20068;-90
2023/03/25 04:38:04;;;;;;;6.00;1.30;;;7.20;99.90;;;;;;4960266;28;20051;-90
2023/03/25 04:40:30;;;;;;;4.07;1.80;;;7.20;99.90;;;;;;4960661;28;20026;-93
2023/03/25 04:42:56;;;;;;;4.20;1.15;;;7.10;99.90;;;;;;4960466;28;20560;-91
2023/03/25 04:45:24;;;;;;;4.32;1.80;;;7.10;99.90;;;;;;4959375;28;20125;-92
2023/03/25 04:47:52;;;;;;;6.55;1.77;;;7.10;99.90;;;;;;4980800;28;20026;-91
2023/03/25 04:50:25;;;;;;;17.70;2.13;;;7.10;99.90;;;;;;4960527;28;20058;-91
2023/03/25 04:52:52;;;;;;;6.63;1.40;;;7.10;99.90;;;;;;4960118;28;20137;-92
2023/03/25 04:55:19;;;;;;;6.28;1.83;;;7.00;99.90;;;;;;4944044;28;20481;-91
2023/03/25 04:57:49;;;;;;;7.90;1.95;;;7.10;99.90;;;;;;4944477;28;20089;-92
2023/03/25 05:00:18;;;;;;;7.60;2.15;;;7.10;99.90;;;;;;4960098;28;20027;-92
2023/03/25 05:02:52;;;;;;;9.73;2.28;;;7.10;99.90;;;;;;4960234;28;20039;-92
2023/03/25 05:05:21;;;;;;;11.02;2.70;;;7.10;99.90;;;;;;4960130;28;20122;-93
2023/03/25 05:07:48;;;;;;;10.23;2.20;;;7.10;99.90;;;;;;4959895;28;20027;-94
2023/03/25 05:10:19;;;;;;;8.93;2.20;;;7.10;99.90;;;;;;4960180;28;20030;-94
2023/03/25 05:12:44;;;;;;;4.78;1.95;;;7.10;99.90;;;;;;4960081;28;20077;-92
2023/03/25 05:15:11;;;;;;;16.02;2.58;;;7.10;99.90;;;;;;4959927;28;20027;-92
2023/03/25 05:17:37;;;;;;;10.70;3.53;;;7.10;99.90;;;;;;4959360;28;20039;-92
2023/03/25 05:20:07;;;;;;;10.80;2.45;;;7.10;99.90;;;;;;4964687;28;20038;-95
2023/03/25 05:22:33;;;;;;;10.50;3.17;;;7.10;99.90;;;;;;4984472;28;20026;-93
2023/03/25 05:25:01;;;;;;;9.95;2.10;;;7.10;99.90;;;;;;4966523;28;20046;-93
2023/03/25 05:27:29;;;;;;;11.25;1.90;;;7.10;99.90;;;;;;4966769;28;20023;-91
2023/03/25 05:29:58;;;;;;;14.68;3.45;;;7.10;99.90;;;;;;4979246;28;20104;-91
2023/03/25 05:32:24;;;;;;;17.70;3.67;;;7.20;99.90;;;;;;4994848;28;20007;-89
2023/03/25 05:34:52;;;;;;;10.85;3.35;;;7.20;99.90;;;;;;4977628;28;20099;-89
2023/03/25 05:37:18;;;;;;;11.88;3.05;;;7.20;99.90;;;;;;4976234;28;20030;-91
2023/03/25 05:39:44;;;;;;;10.10;2.35;;;7.10;99.90;;;;;;4976500;28;20027;-91
2023/03/25 05:42:10;;;;;;;13.30;2.72;;;7.10;99.90;;;;;;4973894;28;20023;-92
2023/03/25 05:44:37;;;;;;;11.88;2.50;;;7.10;99.90;;;;;;4990689;28;20114;-91
2023/03/25 05:47:03;;;;;;;6.82;1.70;;;7.10;99.90;;;;;;4963776;28;20023;-93
2023/03/25 05:49:29;;;;;;;5.82;2.15;;;7.10;99.90;;;;;;4964238;28;20550;-92
2023/03/25 05:51:54;;;;;;;10.38;2.10;;;7.10;99.90;;;;;;4963990;28;20086;-92
2023/03/25 05:54:23;;;;;;;10.32;2.00;;;7.10;99.90;;;;;;4963446;28;20030;-92
2023/03/25 05:56:50;;;;;;;10.27;1.95;;;7.00;99.90;;;;;;4966264;28;20093;-92
2023/03/25 05:59:16;;;;;;;17.40;2.22;;;7.10;99.90;;;;;;4964470;28;20019;-94
2023/03/25 06:01:44;;;;;;;9.18;2.42;;;7.00;99.90;;;;;;4962693;28;20031;-94
2023/03/25 06:04:12;;;;;;;7.35;1.80;;;7.10;99.90;;;;;;4962176;28;20033;-93
2023/03/25 06:06:38;;;;;;;10.77;1.80;;;7.00;99.90;;;;;;4961448;28;20027;-94
2023/03/25 06:09:06;;;;;;;9.70;2.30;;;7.00;99.90;;;;;;4961485;28;20031;-94
2023/03/25 06:11:36;;;;;;;9.32;1.25;;;7.10;99.90;;;;;;4960273;28;20023;-95
2023/03/25 06:14:03;;;;;;;;;;;7.10;99.90;;;;;;4959840;28;20035;-94
2023/03/25 06:16:29;;;;;;;7.85;1.20;;;7.10;99.90;;;;;;4975619;28;19905;-94
2023/03/25 06:18:58;;;;;;;12.18;1.80;;;7.10;99.90;;;;;;4960850;28;20042;-94
2023/03/25 06:21:25;;;;;;;4.38;1.27;;;7.10;99.90;;;;;;4959893;28;20022;-94
2023/03/25 06:23:52;;;;;;;8.50;1.67;;;7.10;99.90;;;;;;4959812;28;20031;-92
2023/03/25 06:26:20;;;;;;;10.57;1.73;;;7.20;99.90;;;;;;4966407;28;20054;-93
2023/03/25 06:28:46;;;;;;;18.27;1.88;;;7.20;99.90;;;;;;4959601;28;20037;-94
2023/03/25 06:31:21;;;;;;;8.52;2.15;;;7.20;99.90;;;;;;4959181;28;20118;-93
2023/03/25 06:33:48;;;;;;;14.93;2.05;;;7.20;99.90;;;;;;4959475;28;20573;-92
2023/03/25 06:36:17;;;;;;;12.77;1.60;;;7.20;99.90;;;;;;4959063;28;20032;-92
2023/03/25 06:38:45;;;;;;;11.50;2.20;;;7.20;99.90;;;;;;4959592;28;20066;-92
2023/03/25 06:41:16;;;;;;;6.95;1.50;;;7.20;99.90;;;;;;4975339;28;20033;-92
2023/03/25 06:43:42;;;;;;;12.13;1.58;;;7.20;99.90;;;;;;4958108;28;20102;-92
2023/03/25 06:46:07;;;;;;;11.30;2.17;;;7.20;99.90;;;;;;4958386;28;20061;-92
2023/03/25 06:48:33;;;;;;;13.50;1.55;;;7.20;99.90;;;;;;4958548;28;20059;-92
2023/03/25 06:50:59;;;;;;;7.22;1.55;;;7.20;99.90;;;;;;4958309;28;20098;-92
2023/03/25 06:53:24;;;;;;;12.43;1.92;;;7.20;99.90;;;;;;4975422;28;20031;-92
2023/03/25 06:55:50;;;;;;;9.77;1.42;;;7.30;99.90;;;;;;4958427;28;20023;-92
2023/03/25 06:58:16;;;;;;;9.02;1.23;;;7.30;99.90;;;;;;4958238;28;20081;-92
2023/03/25 07:00:41;;;;;;;13.13;2.72;;;7.30;99.90;;;;;;4958908;28;20395;-91
2023/03/25 07:03:08;;;;;;;10.73;1.77;;;7.30;99.90;;;;;;4958491;28;20038;-90
2023/03/25 07:05:34;;;;;;;8.45;1.38;;;7.30;99.90;;;;;;4958175;28;20050;-91
2023/03/25 07:08:00;;;;;;;9.80;1.52;;;7.40;99.90;;;;;;4958944;28;20082;-91
2023/03/25 07:10:25;;;;;;;12.38;2.35;;;7.40;99.90;;;;;;4962235;28;20022;-92
2023/03/25 07:12:51;;;;;;;12.18;2.00;;;7.40;99.90;;;;;;4961742;28;20034;-91
2023/03/25 07:15:17;;;;;;;11.13;1.58;;;7.40;99.90;;;;;;4962174;28;20037;-93
2023/03/25 07:17:42;;;;;;;11.90;1.33;;;7.50;99.90;;;;;;4961381;28;20039;-92
2023/03/25 07:20:09;;;;;;;15.63;1.73;;;7.50;99.90;;;;;;4960843;28;20037;-89
2023/03/25 07:22:34;;;;;;;18.02;1.83;;;7.50;99.90;;;;;;4961069;28;20488;-91
2023/03/25 07:25:00;;;;;;;4.78;0.98;;;7.50;99.90;;;;;;4961093;28;20019;-93
2023/03/25 07:27:26;;;;;;;9.82;1.40;;;7.50;99.90;;;;;;4978339;28;20027;-91
2023/03/25 07:29:52;;;;;;;8.68;1.35;;;7.60;99.90;;;;;;4961023;28;20027;-90
2023/03/25 07:32:18;;;;;;;9.00;1.33;;;7.60;99.90;;;;;;4960594;28;20484;-92
2023/03/25 07:34:44;;;;;;;10.63;1.58;;;7.70;99.90;;;;;;4960812;28;20117;-90
2023/03/25 07:37:10;;;;;;;7.47;1.10;;;7.70;99.90;;;;;;4960165;28;20509;-89
2023/03/25 07:39:36;;;;;;;16.50;2.88;;;7.70;99.90;;;;;;4960209;28;20070;-90
2023/03/25 07:42:01;;;;;;;14.43;1.77;;;7.70;99.90;;;;;;4959790;28;20031;-90
2023/03/25 07:44:27;;;;;;;15.48;1.50;;;7.70;99.90;;;;;;4977187;28;20030;-90
2023/03/25 07:46:53;;;;;;;19.98;1.80;;;7.70;99.90;;;;;;4959701;28;20038;-90
2023/03/25 07:49:18;;;;;;;22.05;2.13;;;7.80;99.90;;;;;;4954725;28;20038;-90
2023/03/25 07:51:45;;;;;;;8.77;1.42;;;7.80;99.90;;;;;;4960305;28;20062;-90
2023/03/25 07:54:10;;;;;;;13.48;2.08;;;7.80;99.90;;;;;;4960676;28;20035;-91
2023/03/25 07:56:36;;;;;;;12.00;2.72;;;7.80;99.90;;;;;;4960558;28;20033;-90
2023/03/25 07:59:03;;;;;;;6.32;1.42;;;7.90;99.90;;;;;;4960896;28;20073;-90
2023/03/25 08:01:29;;;;;;;9.65;1.98;;;7.90;99.90;;;;;;4960814;28;20046;-90
2023/03/25 08:03:54;;;;;;;10.00;2.80;;;7.90;99.90;;;;;;4961065;28;20038;-90
2023/03/25 08:06:20;;;;;;;14.15;1.90;;;7.90;99.90;;;;;;4961599;28;20031;-90
2023/03/25 08:08:46;;;;;;;9.93;1.48;;;7.90;99.90;;;;;;4961381;28;20077;-90
2023/03/25 08:11:11;;;;;;;10.95;1.52;;;8.00;99.90;;;;;;4961613;28;20031;-91
2023/03/25 08:13:38;;;;;;;13.00;1.67;;;8.00;99.90;;;;;;4961267;28;20082;-90
2023/03/25 08:16:14;;;;;;;10.25;1.45;;;8.00;99.90;;;;;;4961523;28;20062;-89
2023/03/25 08:18:43;;;;;;;10.07;1.60;;;8.00;99.90;;;;;;4961060;28;20034;-90
2023/03/25 08:21:10;;;;;;;8.15;2.03;;;8.10;99.90;;;;;;4959309;28;20107;-92
2023/03/25 08:23:36;;;;;;;4.45;1.23;;;8.10;99.90;;;;;;4960592;28;20033;-89
2023/03/25 08:26:04;;;;;;;8.80;1.17;;;8.10;99.90;;;;;;4960361;28;20019;-90
2023/03/25 08:28:30;;;;;;;7.25;1.33;;;8.10;99.90;;;;;;4960343;28;20105;-90
2023/03/25 08:30:56;;;;;;;11.25;2.75;;;8.10;99.90;;;;;;4976654;28;20106;-90
2023/03/25 08:33:38;;;;;;;14.35;2.13;;;8.10;99.90;;;;;;4960029;28;20473;-90
2023/03/25 08:36:04;;;;;;;12.10;1.70;;;8.20;99.90;;;;;;4959965;28;20027;-90
2023/03/25 08:38:31;;;;;;;6.97;1.60;;;8.20;99.90;;;;;;4959438;28;20109;-91
2023/03/25 08:41:00;;;;;;;9.48;1.10;;;8.20;99.90;;;;;;4959336;28;20023;-89
2023/03/25 08:43:26;;;;;;;7.15;1.45;;;8.20;99.90;;;;;;4959004;28;20031;-89
2023/03/25 08:45:52;;;;;;;12.23;1.55;;;8.30;99.90;;;;;;4959676;28;20460;-90
2023/03/25 08:48:18;;;;;;;13.35;1.52;;;8.30;99.90;;;;;;4959470;28;20030;-91
2023/03/25 08:50:43;;;;;;;12.25;2.08;;;8.30;99.90;;;;;;4959246;28;20026;-90
2023/03/25 08:53:09;;;;;;;9.13;1.23;;;8.30;99.90;;;;;;4958921;28;20408;-90
2023/03/25 08:55:36;;;;;;;8.48;1.33;;;8.40;99.90;;;;;;4959312;28;20412;-89
2023/03/25 08:58:03;;;;;;;6.28;1.10;;;8.40;99.90;;;;;;4958917;28;20058;-88
2023/03/25 09:00:29;;;;;;;11.93;1.85;;;8.40;99.90;;;;;;4959161;28;20022;-89
2023/03/25 09:02:57;;;;;;;8.13;1.30;;;8.50;99.90;;;;;;4958647;28;20066;-88
2023/03/25 09:05:23;;;;;;;6.95;1.33;;;8.50;99.90;;;;;;4958770;28;20069;-88
2023/03/25 09:07:49;;;;;;;8.20;1.73;;;8.60;99.90;;;;;;4958749;28;20086;-87
2023/03/25 09:10:15;;;;;;;8.65;1.40;;;8.60;99.90;;;;;;4958543;28;20520;-87
2023/03/25 09:12:41;;;;;;;8.48;1.63;;;8.70;99.90;;;;;;4958409;28;20023;-86
2023/03/25 09:15:09;;;;;;;9.05;1.58;;;8.70;99.90;;;;;;4958297;28;20114;-87
2023/03/25 09:17:34;;;;;;;21.33;2.72;;;8.80;99.90;;;;;;4958002;28;20041;-86
2023/03/25 09:20:00;;;;;;;11.10;1.50;;;8.80;99.90;;;;;;4958326;28;20026;-87
2023/03/25 09:22:26;;;;;;;10.25;1.90;;;8.90;99.90;;;;;;4957245;28;20113;-87
2023/03/25 09:24:51;;;;;;;7.60;1.55;;;9.00;99.90;;;;;;4957947;28;20038;-87
2023/03/25 09:27:17;;;;;;;12.00;1.50;;;9.00;99.90;;;;;;4957877;28;20796;-86
2023/03/25 09:29:43;;;;;;;8.35;1.67;;;9.10;99.90;;;;;;4957933;28;20113;-87
2023/03/25 09:32:08;;;;;;;6.75;1.48;;;9.10;99.90;;;;;;4974541;28;20027;-87
2023/03/25 09:34:34;;;;;;;9.57;1.42;;;9.20;99.90;;;;;;4958155;28;20030;-87
2023/03/25 09:37:02;;;;;;;10.32;1.48;;;9.20;99.90;;;;;;4958561;28;20039;-86
2023/03/25 09:39:27;;;;;;;16.83;2.08;;;9.20;99.90;;;;;;4957965;28;20062;-85
2023/03/25 09:42:00;;;;;;;7.82;1.40;;;9.20;99.90;;;;;;4957841;28;20496;-86
2023/03/25 09:45:13;;;;;;;9.80;1.75;;;9.20;99.90;;;;;;4956658;28;20559;-86
2023/03/25 09:47:45;;;;;;;12.02;1.10;;;9.20;99.90;;;;;;4943893;28;20451;-86
2023/03/25 09:50:14;;;;;;;13.88;1.65;;;9.20;99.90;;;;;;4956623;28;20154;-86
2023/03/25 09:52:49;;;;;;;10.18;1.40;;;9.30;99.90;;;;;;4955865;28;20556;-87
2023/03/25 09:55:23;;;;;;;8.48;1.25;;;9.40;99.90;;;;;;4956110;28;20058;-87
2023/03/25 09:57:55;;;;;;;6.38;1.40;;;9.50;99.90;;;;;;4956495;28;20400;-87
2023/03/25 10:00:25;;;;;;;9.80;1.20;;;9.50;99.90;;;;;;4957396;28;20027;-86
2023/03/25 10:03:15;;;;;;;10.95;2.65;;;9.50;99.90;;;;;;4957206;28;20027;-86
2023/03/25 10:05:56;;;;;;;12.27;1.47;;;9.60;99.90;;;;;;4957483;28;20388;-86
2023/03/25 10:08:36;;;;;;;14.13;1.55;;;9.50;99.90;;;;;;4957608;28;20293;-88
2023/03/25 10:11:02;;;;;;;2.05;0.82;;;9.50;99.90;;;;;;4957299;28;20026;-87
2023/03/25 10:13:47;;;;;;;7.65;0.95;;;9.50;99.90;;;;;;4957351;28;20063;-86
2023/03/25 10:16:34;;;;;;;5.63;1.60;;;9.50;99.90;;;;;;4957185;28;20038;-86
2023/03/25 10:19:34;;;;;;;10.00;1.70;;;9.50;99.90;;;;;;4957276;28;20041;-88
2023/03/25 10:22:14;;;;;;;10.43;1.52;;;9.60;99.90;;;;;;4957295;28;20037;-87
2023/03/25 10:24:40;;;;;;;;;;;9.90;99.90;;;;;;4957561;28;20026;-88
2023/03/25 10:27:32;;;;;;;6.80;1.45;;;10.00;99.90;;;;;;4974439;28;19913;-87
2023/03/25 10:30:23;;;;;;;8.10;1.50;;;10.10;99.90;;;;;;4957480;28;20043;-88
2023/03/25 10:33:03;;;;;;;8.85;1.23;;;10.10;99.90;;;;;;4956999;28;20055;-88
2023/03/25 10:35:31;;;;;;;3.25;0.93;;;10.10;99.90;;;;;;4956596;28;20496;-87
2023/03/25 10:38:05;;;;;;;8.77;1.35;;;10.00;99.90;;;;;;4956746;28;20058;-87
2023/03/25 10:40:48;;;;;;;6.85;1.63;;;10.00;99.90;;;;;;4956921;28;20030;-87
2023/03/25 10:43:39;;;;;;;5.75;0.82;;;10.00;99.90;;;;;;4956386;28;20031;-88
2023/03/25 10:46:30;;;;;;;5.57;0.95;;;9.90;99.90;;;;;;4956550;28;20041;-86
2023/03/25 10:48:56;;;;;;;3.67;0.85;;;9.90;99.90;;;;;;4945838;28;20057;-87
2023/03/25 10:51:34;;;;;;;12.90;1.35;;;9.80;99.90;;;;;;4956684;28;20050;-88
2023/03/25 10:54:00;;;;;;;6.95;1.17;;;9.70;99.90;;;;;;4957238;28;20078;-87
2023/03/25 10:56:50;;;;;;;8.88;1.35;;;9.70;99.90;;;;;;4957197;28;20023;-88
2023/03/25 10:59:28;;;;;;;9.05;1.25;;;9.60;99.90;;;;;;4945668;28;20034;-88
2023/03/25 11:01:56;;;;;;;8.85;1.15;;;9.60;99.90;;;;;;4957112;28;20034;-87
2023/03/25 11:04:26;;;;;;;9.40;1.33;;;9.60;99.90;;;;;;4957200;28;20035;-87
2023/03/25 11:06:56;;;;;;;7.95;1.40;;;9.60;99.90;;;;;;4956526;28;20038;-88
2023/03/25 11:09:24;;;;;;;7.93;1.50;;;9.60;99.90;;;;;;4956847;28;20031;-87
2023/03/25 11:11:52;;;;;;;6.03;0.95;;;9.50;99.90;;;;;;4956641;28;20035;-87
2023/03/25 11:14:23;;;;;;;7.70;1.75;;;9.50;99.90;;;;;;4956607;28;20034;-87
2023/03/25 11:16:59;;;;;;;8.98;1.30;;;9.50;99.90;;;;;;4956509;28;20384;-90
2023/03/25 11:19:35;;;;;;;10.30;1.38;;;9.50;99.90;;;;;;4956566;28;20037;-87
2023/03/25 11:22:17;;;;;;;8.38;1.90;;;9.50;99.90;;;;;;4957020;28;20019;-88
2023/03/25 11:24:51;;;;;;;5.35;0.70;;;9.50;99.90;;;;;;4957533;28;20031;-87
2023/03/25 11:27:27;;;;;;;7.85;1.15;;;9.50;99.90;;;;;;4956970;28;20034;-88
2023/03/25 11:29:56;;;;;;;6.53;1.15;;;9.60;99.90;;;;;;4957353;28;20089;-88
2023/03/25 11:32:38;;;;;;;5.88;1.30;;;9.80;99.90;;;;;;4957232;28;20198;-87
2023/03/25 11:35:16;;;;;;;7.18;1.73;;;10.00;99.90;;;;;;4957140;28;20019;-88
2023/03/25 11:37:48;;;;;;;6.25;1.10;;;10.10;99.90;;;;;;4956547;28;20507;-88
2023/03/25 11:40:17;;;;;;;7.93;1.10;;;10.20;99.90;;;;;;4956659;28;20497;-88
2023/03/25 11:42:48;;;;;;;8.88;1.55;;;10.20;99.90;;;;;;4956459;28;20384;-88
2023/03/25 11:45:30;;;;;;;9.30;1.00;;;10.20;99.90;;;;;;4956514;28;20412;-89
2023/03/25 11:48:00;;;;;;;9.95;1.50;;;10.20;99.90;;;;;;4956359;28;20485;-88
2023/03/25 11:50:28;;;;;;;9.17;1.67;;;10.60;99.90;;;;;;4956598;28;20027;-89
2023/03/25 11:52:57;;;;;;;3.67;1.70;;;10.90;99.90;;;;;;4956214;28;20043;-89
2023/03/25 11:55:26;;;;;;;10.00;1.00;;;11.10;99.90;;;;;;4958762;28;20039;-88
2023/03/25 11:57:55;;;;;;;4.30;0.90;;;11.10;99.90;;;;;;4959633;28;20559;-89
2023/03/25 12:00:52;;;;;;;6.75;1.13;;;11.00;99.90;;;;;;4959701;28;20023;-87
2023/03/25 12:03:26;;;;;;;6.63;1.05;;;10.90;99.90;;;;;;4940285;28;20027;-87
2023/03/25 12:06:10;;;;;;;7.30;1.10;;;10.80;99.90;;;;;;4959222;28;20378;-87
2023/03/25 12:08:49;;;;;;;9.05;1.20;;;10.70;99.90;;;;;;4959490;28;20477;-87
2023/03/25 12:11:33;;;;;;;5.65;0.90;;;10.60;99.90;;;;;;4959315;28;20046;-86
2023/03/25 12:14:21;;;;;;;6.75;1.13;;;10.40;99.90;;;;;;4959162;28;20031;-88
2023/03/25 12:17:33;;;;;;;6.85;1.02;;;10.30;99.90;;;;;;4959190;28;20035;-87
2023/03/25 12:20:10;;;;;;;9.40;1.10;;;10.30;99.90;;;;;;4863904;29;20615;-87
2023/03/25 12:22:48;;;;;;;5.90;0.70;;;10.40;99.90;;;;;;4879746;29;20537;-87
2023/03/25 12:25:53;;;;;;;7.72;1.10;;;10.50;99.90;;;;;;4879909;29;20139;-87
2023/03/25 12:28:28;;;;;;;4.63;0.80;;;10.80;99.90;;;;;;4809313;29;20371;-86
2023/03/25 12:31:03;;;;;;;4.45;1.80;;;11.30;99.90;;;;;;4809511;29;20039;-87
2023/03/25 12:34:06;;;;;;;4.45;0.90;;;11.70;99.90;;;;;;4810155;29;20544;-87
2023/03/25 12:36:40;;;;;;;4.15;0.57;;;12.20;99.90;;;;;;4809316;29;20516;-88
2023/03/25 12:39:22;;;;;;;7.53;1.80;;;12.60;99.90;;;;;;4824024;29;20054;-88
2023/03/25 12:42:23;;;;;;;5.43;1.10;;;13.00;99.90;;;;;;4808742;29;20030;-88
2023/03/25 12:45:12;;;;;;;5.65;1.40;;;13.20;99.90;;;;;;4823654;29;20597;-88
2023/03/25 12:47:41;;;;;;;6.22;0.90;;;13.50;99.90;;;;;;4808639;29;20148;-87
2023/03/25 12:50:21;;;;;;;4.20;0.70;;;13.50;99.90;;;;;;4830762;29;20032;-87
2023/03/25 12:52:57;;;;;;;4.32;0.93;;;13.30;99.90;;;;;;4882207;29;20049;-87
2023/03/25 12:55:44;;;;;;;3.60;0.47;;;13.00;98.90;;;;;;4882309;29;20360;-88
2023/03/25 12:58:34;;;;;;;4.38;0.90;;;12.70;97.30;;;;;;4882225;29;20048;-89
2023/03/25 13:01:11;;;;;;;6.78;1.00;;;12.50;98.10;;;;;;4882193;29;20033;-88
2023/03/25 13:03:43;;;;;;;1.88;0.52;;;12.40;99.00;;;;;;4976060;28;20030;-87
2023/03/25 13:06:51;;;;;;;7.13;0.90;;;12.50;98.70;;;;;;4958415;28;20042;-89
2023/03/25 13:09:23;;;;;;;4.13;0.55;;;12.60;98.30;;;;;;4960019;28;20389;-88
2023/03/25 13:11:58;;;;;;;2.88;0.70;;;12.90;98.10;;;;;;4959426;28;20037;-88
2023/03/25 13:14:29;;;;;;;1.23;0.57;;;13.20;97.20;;;;;;4960454;28;20054;-87
2023/03/25 13:16:59;;;;;;;4.35;0.70;;;13.50;96.50;;;;;;4961503;28;20062;-88